createdAt,value
2018-06-03T00:01:21.130Z,98285.16
2018-06-03T00:03:48.899Z,98290.09
2018-06-03T00:06:16.715Z,98286.30
2018-06-03T00:08:44.415Z,98286.50
2018-06-03T00:11:12.204Z,98276.09
2018-06-03T00:13:39.949Z,98278.84
2018-06-03T00:16:07.731Z,98277.23
2018-06-03T00:18:36.326Z,98286.92
2018-06-03T00:21:16.061Z,98287.26
2018-06-03T00:23:44.581Z,98285.56
2018-06-03T00:26:13.942Z,98276.50
2018-06-03T00:28:42.547Z,98279.42
2018-06-03T00:31:11.229Z,98282.63
2018-06-03T00:33:39.806Z,98281.58
2018-06-03T00:36:12.956Z,98290.41
2018-06-03T00:38:41.455Z,98290.63
2018-06-03T00:41:09.362Z,98280.70
2018-06-03T00:43:38.100Z,98283.53
2018-06-03T00:46:06.939Z,98285.53
2018-06-03T00:48:35.464Z,98278.66
2018-06-03T00:51:04.146Z,98281.31
2018-06-03T00:53:32.741Z,98280.58
2018-06-03T00:56:01.286Z,98275.76
2018-06-03T00:58:29.816Z,98280.50
2018-06-03T01:00:58.610Z,98281.13
2018-06-03T01:03:27.261Z,98278.56
2018-06-03T01:05:55.836Z,98273.45
2018-06-03T01:08:25.515Z,98273.12
2018-06-03T01:10:54.205Z,98272.64
2018-06-03T01:13:22.713Z,98276.24
2018-06-03T01:15:51.694Z,98271.94
2018-06-03T01:18:20.256Z,98265.20
2018-06-03T01:20:48.735Z,98261.83
2018-06-03T01:23:17.481Z,98257.63
2018-06-03T01:25:46.050Z,98261.86
2018-06-03T01:28:14.594Z,98257.07
2018-06-03T01:30:43.306Z,98258.17
2018-06-03T01:33:12.041Z,98251.78
2018-06-03T01:35:40.677Z,98251.45
2018-06-03T01:38:09.434Z,98253.55
2018-06-03T01:40:37.961Z,98262.81
2018-06-03T01:43:05.955Z,98257.70
2018-06-03T01:45:34.542Z,98249.88
2018-06-03T01:48:03.082Z,98255.31
2018-06-03T01:50:31.014Z,98248.03
2018-06-03T01:52:58.839Z,98248.25
2018-06-03T01:55:27.306Z,98241.30
2018-06-03T01:57:55.948Z,98241.37
2018-06-03T02:00:25.224Z,98237.77
2018-06-03T02:02:53.921Z,98240.40
2018-06-03T02:05:22.429Z,98247.27
2018-06-03T02:07:50.967Z,98237.02
2018-06-03T02:10:20.315Z,98237.08
2018-06-03T02:12:49.039Z,98231.41
2018-06-03T02:15:16.992Z,98230.51
2018-06-03T02:17:44.779Z,98224.59
2018-06-03T02:20:13.565Z,98227.38
2018-06-03T02:22:41.352Z,98224.88
2018-06-03T02:25:09.100Z,98225.14
2018-06-03T02:27:37.737Z,98219.61
2018-06-03T02:30:05.841Z,98222.47
2018-06-03T02:32:33.741Z,98220.88
2018-06-03T02:35:01.527Z,98224.15
2018-06-03T02:37:30.092Z,98219.81
2018-06-03T02:39:58.728Z,98224.05
2018-06-03T02:42:26.603Z,98224.52
2018-06-03T02:44:55.201Z,98222.97
2018-06-03T02:47:23.817Z,98224.16
2018-06-03T02:49:52.351Z,98221.02
2018-06-03T02:52:20.824Z,98223.55
2018-06-03T02:54:48.660Z,98226.84
2018-06-03T02:57:16.552Z,98224.42
2018-06-03T02:59:44.426Z,98228.27
2018-06-03T03:02:12.967Z,98228.69
2018-06-03T03:04:41.537Z,98222.93
2018-06-03T03:07:10.180Z,98223.97
2018-06-03T03:09:37.896Z,98216.75
2018-06-03T03:12:05.650Z,98218.76
2018-06-03T03:14:34.248Z,98227.84
2018-06-03T03:17:01.952Z,98229.66
2018-06-03T03:19:29.832Z,98229.66
2018-06-03T03:21:58.476Z,98223.48
2018-06-03T03:24:26.261Z,98222.12
2018-06-03T03:26:54.791Z,98227.38
2018-06-03T03:29:22.552Z,98227.70
2018-06-03T03:31:50.483Z,98236.95
2018-06-03T03:34:19.006Z,98232.81
2018-06-03T03:36:47.482Z,98233.36
2018-06-03T03:39:16.131Z,98237.92
2018-06-03T03:41:44.055Z,98244.33
2018-06-03T03:44:12.334Z,98242.36
2018-06-03T03:46:40.979Z,98236.55
2018-06-03T03:49:08.790Z,98230.50
2018-06-03T03:51:36.488Z,98226.36
2018-06-03T03:54:05.297Z,98232.89
2018-06-03T03:56:33.120Z,98235.38
2018-06-03T03:59:00.871Z,98247.02
2018-06-03T04:01:29.470Z,98244.44
2018-06-03T04:03:57.307Z,98247.09
2018-06-03T04:06:26.367Z,98248.52
2018-06-03T04:08:54.214Z,98249.09
2018-06-03T04:11:22.015Z,98251.29
2018-06-03T04:13:50.560Z,98245.22
2018-06-03T04:16:19.202Z,98258.55
2018-06-03T04:18:47.712Z,98258.23
2018-06-03T04:21:16.327Z,98256.80
2018-06-03T04:23:44.095Z,98261.86
2018-06-03T04:26:12.682Z,98259.95
2018-06-03T04:28:41.262Z,98263.19
2018-06-03T04:31:09.975Z,98258.23
2018-06-03T04:33:38.577Z,98262.08
2018-06-03T04:36:06.301Z,98268.00
2018-06-03T04:38:34.682Z,98268.55
2018-06-03T04:41:02.520Z,98265.91
2018-06-03T04:43:31.115Z,98268.94
2018-06-03T04:45:59.580Z,98267.05
2018-06-03T04:48:28.078Z,98269.09
2018-06-03T04:50:56.551Z,98278.80
2018-06-03T04:53:24.815Z,98274.77
2018-06-03T04:55:52.761Z,98273.91
2018-06-03T04:58:20.511Z,98270.58
2018-06-03T05:00:48.966Z,98264.78
2018-06-03T05:03:16.732Z,98261.34
2018-06-03T05:05:44.508Z,98266.03
2018-06-03T05:08:12.237Z,98264.91
2018-06-03T05:10:40.006Z,98263.30
2018-06-03T05:13:08.132Z,98266.33
2018-06-03T05:15:36.664Z,98266.05
2018-06-03T05:18:05.686Z,98267.49
2018-06-03T05:20:34.326Z,98270.77
2018-06-03T05:23:02.988Z,98269.50
2018-06-03T05:25:30.692Z,98271.72
2018-06-03T05:27:58.492Z,98273.27
2018-06-03T05:30:26.276Z,98271.47
2018-06-03T05:32:54.138Z,98260.16
2018-06-03T05:35:21.980Z,98265.98
2018-06-03T05:37:49.831Z,98260.26
2018-06-03T05:40:18.393Z,98267.49
2018-06-03T05:42:46.246Z,98268.02
2018-06-03T05:45:14.412Z,98262.42
2018-06-03T05:47:42.228Z,98258.60
2018-06-03T05:50:10.811Z,98262.61
2018-06-03T05:52:38.477Z,98268.61
2018-06-03T05:55:06.191Z,98268.43
2018-06-03T05:57:33.907Z,98272.16
2018-06-03T06:00:02.662Z,98274.73
2018-06-03T06:02:31.255Z,98273.19
2018-06-03T06:04:59.824Z,98270.52
2018-06-03T06:07:28.513Z,98269.47
2018-06-03T06:09:57.148Z,98278.78
2018-06-03T06:12:25.706Z,98269.40
2018-06-03T06:14:54.426Z,98275.55
2018-06-03T06:17:23.307Z,98280.88
2018-06-03T06:19:52.102Z,98282.60
2018-06-03T06:22:21.356Z,98284.50
2018-06-03T06:24:49.933Z,98283.78
2018-06-03T06:27:18.712Z,98283.64
2018-06-03T06:29:47.909Z,98284.58
2018-06-03T06:32:16.658Z,98294.84
2018-06-03T06:34:45.219Z,98294.93
2018-06-03T06:37:13.924Z,98295.93
2018-06-03T06:39:42.547Z,98296.83
2018-06-03T06:42:11.211Z,98294.52
2018-06-03T06:44:39.847Z,98295.77
2018-06-03T06:47:08.329Z,98294.16
2018-06-03T06:49:37.006Z,98290.96
2018-06-03T06:52:05.990Z,98286.00
2018-06-03T06:54:35.311Z,98291.85
2018-06-03T06:57:03.864Z,98292.63
2018-06-03T06:59:32.531Z,98281.82
2018-06-03T07:02:01.126Z,98287.28
2018-06-03T07:04:29.866Z,98291.23
2018-06-03T07:06:58.581Z,98298.43
2018-06-03T07:09:27.255Z,98291.30
2018-06-03T07:11:55.803Z,98291.20
2018-06-03T07:14:24.364Z,98293.75
2018-06-03T07:16:53.048Z,98292.45
2018-06-03T07:19:21.570Z,98298.33
2018-06-03T07:21:50.159Z,98292.03
2018-06-03T07:24:18.799Z,98290.26
2018-06-03T07:26:47.445Z,98291.51
2018-06-03T07:29:16.058Z,98289.78
2018-06-03T07:31:44.624Z,98289.58
2018-06-03T07:34:12.350Z,98286.99
2018-06-03T07:36:41.069Z,98292.84
2018-06-03T07:39:08.826Z,98286.96
2018-06-03T07:41:37.697Z,98287.80
2018-06-03T07:44:05.618Z,98288.05
2018-06-03T07:46:33.436Z,98288.22
2018-06-03T07:49:01.324Z,98290.52
2018-06-03T07:51:29.086Z,98280.26
2018-06-03T07:53:56.840Z,98276.08
2018-06-03T07:56:24.701Z,98274.52
2018-06-03T07:58:53.470Z,98275.57
2018-06-03T08:01:21.304Z,98269.28
2018-06-03T08:03:49.099Z,98271.39
2018-06-03T08:06:16.883Z,98271.18
2018-06-03T08:08:44.745Z,98272.78
2018-06-03T08:11:12.452Z,98263.95
2018-06-03T08:13:40.290Z,98261.78
2018-06-03T08:16:08.637Z,98260.03
2018-06-03T08:18:36.529Z,98257.38
2018-06-03T08:21:04.308Z,98255.55
2018-06-03T08:23:32.032Z,98257.50
2018-06-03T08:25:59.968Z,98260.16
2018-06-03T08:28:27.887Z,98257.05
2018-06-03T08:30:56.741Z,98251.12
2018-06-03T08:33:25.545Z,98247.47
2018-06-03T08:35:55.140Z,98248.20
2018-06-03T08:38:23.956Z,98252.46
2018-06-03T08:40:52.700Z,98247.73
2018-06-03T08:43:21.469Z,98246.75
2018-06-03T08:45:50.074Z,98236.57
2018-06-03T08:48:18.765Z,98241.24
2018-06-03T08:50:47.578Z,98240.37
2018-06-03T08:53:16.261Z,98241.96
2018-06-03T08:55:45.051Z,98233.78
2018-06-03T08:58:13.657Z,98239.09
2018-06-03T09:00:42.631Z,98232.75
2018-06-03T09:03:11.331Z,98241.02
2018-06-03T09:05:40.021Z,98233.89
2018-06-03T09:08:08.665Z,98236.09
2018-06-03T09:10:37.539Z,98227.55
2018-06-03T09:13:06.157Z,98224.47
2018-06-03T09:15:34.787Z,98229.38
2018-06-03T09:18:03.346Z,98225.40
2018-06-03T09:20:32.053Z,98233.93
2018-06-03T09:23:00.809Z,98231.55
2018-06-03T09:25:29.348Z,98222.45
2018-06-03T09:27:57.931Z,98222.95
2018-06-03T09:30:26.840Z,98219.79
2018-06-03T09:32:55.450Z,98216.50
2018-06-03T09:35:24.182Z,98216.84
2018-06-03T09:37:52.814Z,98213.62
2018-06-03T09:40:21.684Z,98209.76
2018-06-03T09:42:50.388Z,98212.70
2018-06-03T09:45:19.149Z,98214.28
2018-06-03T09:47:47.685Z,98212.24
2018-06-03T09:50:16.210Z,98203.82
2018-06-03T09:52:44.862Z,98207.66
2018-06-03T09:55:13.388Z,98202.97
2018-06-03T09:57:41.969Z,98193.20
2018-06-03T10:00:14.938Z,98188.03
2018-06-03T10:02:43.768Z,98184.97
2018-06-03T10:05:12.445Z,98179.61
2018-06-03T10:07:41.243Z,98178.30
2018-06-03T10:10:10.237Z,98171.11
2018-06-03T10:12:38.906Z,98173.85
2018-06-03T10:15:07.749Z,98172.53
2018-06-03T10:17:36.519Z,98157.98
2018-06-03T10:20:06.041Z,98169.80
2018-06-03T10:22:34.681Z,98171.61
2018-06-03T10:25:03.448Z,98170.89
2018-06-03T10:27:32.235Z,98168.28
2018-06-03T10:30:01.815Z,98175.08
2018-06-03T10:32:30.411Z,98175.00
2018-06-03T10:34:59.129Z,98174.59
2018-06-03T10:37:27.714Z,98171.45
2018-06-03T10:39:56.843Z,98169.04
2018-06-03T10:42:25.391Z,98167.70
2018-06-03T10:44:54.046Z,98165.34
2018-06-03T10:47:22.854Z,98162.20
2018-06-03T10:49:51.897Z,98168.84
2018-06-03T10:52:21.361Z,98163.68
2018-06-03T10:54:50.084Z,98160.46
2018-06-03T10:57:19.429Z,98162.86
2018-06-03T10:59:50.182Z,98151.63
2018-06-03T11:02:18.899Z,98144.50
2018-06-03T11:04:48.026Z,98148.50
2018-06-03T11:07:17.597Z,98145.75
2018-06-03T11:09:46.324Z,98146.32
2018-06-03T11:12:14.991Z,98142.84
2018-06-03T11:14:43.881Z,98140.41
2018-06-03T11:17:12.559Z,98132.86
2018-06-03T11:19:41.375Z,98135.05
2018-06-03T11:22:10.289Z,98131.00
2018-06-03T11:24:39.749Z,98120.95
2018-06-03T11:27:08.508Z,98119.24
2018-06-03T11:29:37.267Z,98108.45
2018-06-03T11:32:05.101Z,98112.99
2018-06-03T11:34:33.925Z,98113.11
2018-06-03T11:37:03.238Z,98106.33
2018-06-03T11:39:31.864Z,98101.03
2018-06-03T11:41:59.612Z,98091.41
2018-06-03T11:44:27.654Z,98091.70
2018-06-03T11:46:55.406Z,98083.70
2018-06-03T11:49:24.680Z,98094.30
2018-06-03T11:51:53.317Z,98093.33
2018-06-03T11:54:21.949Z,98086.70
2018-06-03T11:57:00.839Z,98080.47
2018-06-03T11:59:46.344Z,98082.66
2018-06-03T12:02:16.605Z,98077.98
2018-06-03T12:04:45.413Z,98071.49
2018-06-03T12:07:14.306Z,98072.89
2018-06-03T12:09:42.905Z,98067.94
2018-06-03T12:12:11.944Z,98061.66
2018-06-03T12:14:41.048Z,98056.61
2018-06-03T12:17:08.881Z,98058.27
2018-06-03T12:19:37.596Z,98056.20
2018-06-03T12:22:06.501Z,98049.22
2018-06-03T12:24:35.613Z,98047.88
2018-06-03T12:27:04.595Z,98043.92
2018-06-03T12:29:33.276Z,98041.78
2018-06-03T12:32:01.840Z,98037.09
2018-06-03T12:34:30.522Z,98033.97
2018-06-03T12:36:59.227Z,98032.31
2018-06-03T12:39:27.837Z,98032.85
2018-06-03T12:41:57.056Z,98029.54
2018-06-03T12:44:26.612Z,98028.42
2018-06-03T12:46:54.562Z,98022.45
2018-06-03T12:49:22.362Z,98019.52
2018-06-03T12:51:50.277Z,98014.66
2018-06-03T12:54:18.182Z,98015.08
2018-06-03T12:56:46.886Z,98015.31
2018-06-03T12:59:15.590Z,98009.61
2018-06-03T13:01:43.439Z,98005.88
2018-06-03T13:04:12.751Z,98007.02
2018-06-03T13:06:41.361Z,98008.54
2018-06-03T13:09:10.062Z,98011.55
2018-06-03T13:11:38.970Z,98004.98
2018-06-03T13:14:06.916Z,98001.66
2018-06-03T13:16:35.540Z,97998.27
2018-06-03T13:19:03.334Z,97994.89
2018-06-03T13:21:32.229Z,97988.20
2018-06-03T13:23:59.975Z,97989.30
2018-06-03T13:26:29.031Z,97985.67
2018-06-03T13:28:56.795Z,97981.65
2018-06-03T13:31:24.682Z,97984.82
2018-06-03T13:33:53.340Z,97973.71
2018-06-03T13:36:22.110Z,97975.05
2018-06-03T13:38:49.914Z,97964.78
2018-06-03T13:41:18.205Z,97962.45
2018-06-03T13:43:47.172Z,97955.71
2018-06-03T13:46:15.790Z,97953.30
2018-06-03T13:48:43.772Z,97950.13
2018-06-03T13:51:12.612Z,97947.09
2018-06-03T13:53:41.296Z,97940.70
2018-06-03T13:56:10.050Z,97938.95
2018-06-03T13:58:38.797Z,97937.52
2018-06-03T14:01:07.722Z,97940.61
2018-06-03T14:03:35.640Z,97937.45
2018-06-03T14:06:03.530Z,97939.03
2018-06-03T14:08:32.650Z,97933.82
2018-06-03T14:11:01.491Z,97931.00
2018-06-03T14:13:30.093Z,97931.20
2018-06-03T14:15:59.586Z,97929.67
2018-06-03T14:18:27.496Z,97922.09
2018-06-03T14:20:55.322Z,97919.49
2018-06-03T14:23:24.338Z,97919.42
2018-06-03T14:25:52.323Z,97922.70
2018-06-03T14:28:20.291Z,97914.63
2018-06-03T14:30:48.175Z,97912.38
2018-06-03T14:33:16.940Z,97919.69
2018-06-03T14:35:45.499Z,97914.56
2018-06-03T14:38:13.432Z,97912.97
2018-06-03T14:40:42.285Z,97910.46
2018-06-03T14:43:10.062Z,97902.75
2018-06-03T14:45:38.210Z,97901.69
2018-06-03T14:48:06.121Z,97908.30
2018-06-03T14:50:34.969Z,97912.42
2018-06-03T14:53:03.457Z,97900.39
2018-06-03T14:55:32.327Z,97905.52
2018-06-03T14:58:00.953Z,97897.31
2018-06-03T15:00:30.024Z,97895.81
2018-06-03T15:02:58.016Z,97894.05
2018-06-03T15:05:26.613Z,97892.02
2018-06-03T15:07:55.697Z,97887.11
2018-06-03T15:10:24.351Z,97884.41
2018-06-03T15:12:53.204Z,97880.02
2018-06-03T15:15:21.889Z,97882.12
2018-06-03T15:17:50.711Z,97882.47
2018-06-03T15:20:19.616Z,97884.98
2018-06-03T15:22:48.220Z,97877.64
2018-06-03T15:25:16.863Z,97876.03
2018-06-03T15:27:45.538Z,97873.05
2018-06-03T15:30:15.132Z,97869.63
2018-06-03T15:32:43.823Z,97874.76
2018-06-03T15:35:12.640Z,97864.84
2018-06-03T15:37:41.213Z,97861.72
2018-06-03T15:40:09.981Z,97860.58
2018-06-03T15:42:38.817Z,97850.54
2018-06-03T15:45:07.737Z,97852.13
2018-06-03T15:47:36.511Z,97844.18
2018-06-03T15:50:05.301Z,97847.77
2018-06-03T15:52:34.003Z,97848.61
2018-06-03T15:55:02.784Z,97843.54
2018-06-03T15:57:31.669Z,97839.51
2018-06-03T15:59:59.722Z,97841.05
2018-06-03T16:02:28.289Z,97838.88
2018-06-03T16:04:56.206Z,97836.92
2018-06-03T16:07:24.899Z,97826.33
2018-06-03T16:09:53.531Z,97821.22
2018-06-03T16:12:22.259Z,97819.67
2018-06-03T16:14:50.053Z,97819.89
2018-06-03T16:17:18.840Z,97820.17
2018-06-03T16:19:47.561Z,97819.61
2018-06-03T16:22:16.877Z,97816.88
2018-06-03T16:24:45.485Z,97817.78
2018-06-03T16:27:14.105Z,97809.52
2018-06-03T16:29:43.244Z,97804.10
2018-06-03T16:32:11.200Z,97798.89
2018-06-03T16:34:39.778Z,97795.42
2018-06-03T16:37:08.561Z,97792.13
2018-06-03T16:39:37.153Z,97797.99
2018-06-03T16:42:05.907Z,97794.83
2018-06-03T16:44:34.645Z,97793.08
2018-06-03T16:47:03.441Z,97794.70
2018-06-03T16:49:32.080Z,97795.50
2018-06-03T16:52:01.290Z,97793.84
2018-06-03T16:54:30.279Z,97793.98
2018-06-03T16:56:58.907Z,97794.91
2018-06-03T16:59:27.565Z,97788.61
2018-06-03T17:01:56.158Z,97791.85
2018-06-03T17:04:24.845Z,97786.12
2018-06-03T17:06:53.552Z,97787.38
2018-06-03T17:09:22.322Z,97792.23
2018-06-03T17:11:50.969Z,97788.05
2018-06-03T17:14:19.941Z,97791.19
2018-06-03T17:16:48.527Z,97792.20
2018-06-03T17:19:17.262Z,97782.77
2018-06-03T17:21:46.545Z,97785.03
2018-06-03T17:24:15.538Z,97782.76
2018-06-03T17:26:44.398Z,97784.66
2018-06-03T17:29:13.316Z,97779.85
2018-06-03T17:31:42.239Z,97782.54
2018-06-03T17:34:11.033Z,97775.76
2018-06-03T17:36:38.858Z,97773.48
2018-06-03T17:39:08.863Z,97778.00
2018-06-03T17:41:37.708Z,97778.70
2018-06-03T17:44:07.355Z,97775.47
2018-06-03T17:46:36.757Z,97774.92
2018-06-03T17:49:04.727Z,97779.19
2018-06-03T17:51:32.820Z,97781.41
2018-06-03T17:54:00.799Z,97781.65
2018-06-03T17:56:30.219Z,97774.73
2018-06-03T17:58:59.004Z,97777.35
2018-06-03T18:01:26.826Z,97781.55
2018-06-03T18:03:55.201Z,97790.50
2018-06-03T18:06:23.324Z,97786.96
2018-06-03T18:08:52.427Z,97786.98
2018-06-03T18:11:21.084Z,97780.67
2018-06-03T18:13:50.274Z,97776.15
2018-06-03T18:16:18.527Z,97774.38
2018-06-03T18:18:47.668Z,97768.27
2018-06-03T18:21:15.784Z,97769.27
2018-06-03T18:23:44.190Z,97762.58
2018-06-03T18:26:12.457Z,97757.85
2018-06-03T18:28:40.940Z,97754.91
2018-06-03T18:31:09.147Z,97751.57
2018-06-03T18:33:37.573Z,97745.24
2018-06-03T18:36:05.902Z,97742.66
2018-06-03T18:38:34.085Z,97749.17
2018-06-03T18:41:02.294Z,97748.79
2018-06-03T18:43:30.128Z,97743.45
2018-06-03T18:45:58.228Z,97741.23
2018-06-03T18:48:27.093Z,97736.06
2018-06-03T18:50:55.739Z,97738.61
2018-06-03T18:53:24.552Z,97739.76
2018-06-03T18:55:53.333Z,97741.07
2018-06-03T18:58:21.868Z,97733.92
2018-06-03T19:00:49.949Z,97730.09
2018-06-03T19:03:18.257Z,97729.00
2018-06-03T19:05:46.465Z,97723.61
2018-06-03T19:08:14.547Z,97729.87
2018-06-03T19:10:42.879Z,97733.35
2018-06-03T19:13:11.237Z,97727.95
2018-06-03T19:15:39.818Z,97724.88
2018-06-03T19:18:08.073Z,97731.39
2018-06-03T19:20:36.765Z,97728.59
2018-06-03T19:23:05.470Z,97727.70
2018-06-03T19:25:34.035Z,97729.16
2018-06-03T19:28:02.506Z,97741.80
2018-06-03T19:30:30.719Z,97736.02
2018-06-03T19:32:58.558Z,97747.70
2018-06-03T19:35:26.863Z,97750.06
2018-06-03T19:37:55.246Z,97762.66
2018-06-03T19:40:23.240Z,97765.85
2018-06-03T19:42:51.226Z,97758.20
2018-06-03T19:45:19.389Z,97759.02
2018-06-03T19:47:47.484Z,97760.83
2018-06-03T19:50:15.859Z,97760.90
2018-06-03T19:52:44.129Z,97765.91
2018-06-03T19:55:12.100Z,97767.27
2018-06-03T19:57:40.403Z,97770.50
2018-06-03T20:00:09.372Z,97776.52
2018-06-03T20:02:38.004Z,97774.72
2018-06-03T20:05:06.253Z,97780.66
2018-06-03T20:07:34.123Z,97785.02
2018-06-03T20:10:03.173Z,97782.70
2018-06-03T20:12:31.354Z,97784.45
2018-06-03T20:14:59.410Z,97788.19
2018-06-03T20:17:27.293Z,97787.25
2018-06-03T20:19:55.242Z,97788.02
2018-06-03T20:22:23.783Z,97785.37
2018-06-03T20:24:51.684Z,97782.48
2018-06-03T20:27:19.814Z,97785.31
2018-06-03T20:29:47.606Z,97786.10
2018-06-03T20:32:15.469Z,97790.45
2018-06-03T20:34:43.263Z,97787.75
2018-06-03T20:37:11.353Z,97785.97
2018-06-03T20:39:39.310Z,97789.49
2018-06-03T20:42:07.068Z,97780.98
2018-06-03T20:44:35.124Z,97783.72
2018-06-03T20:47:03.033Z,97786.73
2018-06-03T20:49:31.619Z,97779.45
2018-06-03T20:51:59.744Z,97778.36
2018-06-03T20:54:27.626Z,97777.33
2018-06-03T20:56:56.328Z,97788.31
2018-06-03T20:59:25.599Z,97783.91
2018-06-03T21:01:54.458Z,97781.70
2018-06-03T21:04:23.096Z,97784.00
2018-06-03T21:06:50.872Z,97783.93
2018-06-03T21:09:19.413Z,97785.69
2018-06-03T21:11:47.359Z,97782.14
2018-06-03T21:14:16.257Z,97781.27
2018-06-03T21:16:45.194Z,97776.53
2018-06-03T21:19:14.194Z,97780.82
2018-06-03T21:21:42.992Z,97786.42
2018-06-03T21:24:11.849Z,97788.23
2018-06-03T21:26:40.563Z,97789.72
2018-06-03T21:29:09.164Z,97784.86
2018-06-03T21:31:36.920Z,97784.66
2018-06-03T21:34:04.883Z,97784.55
2018-06-03T21:36:32.694Z,97784.36
2018-06-03T21:39:00.528Z,97791.00
2018-06-03T21:41:28.310Z,97790.45
2018-06-03T21:43:56.052Z,97789.69
2018-06-03T21:46:23.777Z,97787.92
2018-06-03T21:48:51.623Z,97789.09
2018-06-03T21:51:19.482Z,97788.32
2018-06-03T21:53:47.399Z,97790.97
2018-06-03T21:56:15.213Z,97786.22
2018-06-03T21:58:43.005Z,97783.25
2018-06-03T22:01:10.763Z,97782.13
2018-06-03T22:03:39.535Z,97783.69
2018-06-03T22:06:08.134Z,97782.80
2018-06-03T22:08:35.844Z,97789.45
2018-06-03T22:11:04.319Z,97786.96
2018-06-03T22:13:32.019Z,97786.61
2018-06-03T22:15:59.864Z,97788.33
2018-06-03T22:18:27.865Z,97788.56
2018-06-03T22:20:56.423Z,97783.69
2018-06-03T22:23:24.969Z,97776.77
2018-06-03T22:25:53.249Z,97774.95
2018-06-03T22:28:21.778Z,97780.44
2018-06-03T22:30:49.559Z,97787.62
2018-06-03T22:33:17.338Z,97786.91
2018-06-03T22:35:46.120Z,97784.44
2018-06-03T22:38:14.004Z,97782.83
2018-06-03T22:40:42.795Z,97774.86
2018-06-03T22:43:11.505Z,97778.52
2018-06-03T22:45:40.283Z,97776.73
2018-06-03T22:48:08.140Z,97786.74
2018-06-03T22:50:36.678Z,97783.55
2018-06-03T22:53:05.264Z,97781.83
2018-06-03T22:55:33.817Z,97782.19
2018-06-03T22:58:03.238Z,97780.58
2018-06-03T23:00:33.543Z,97778.77
2018-06-03T23:03:07.588Z,97777.64
2018-06-03T23:05:36.555Z,97778.88
2018-06-03T23:08:05.156Z,97769.69
2018-06-03T23:10:33.665Z,97773.20
2018-06-03T23:13:02.481Z,97770.02
2018-06-03T23:15:30.368Z,97768.77
2018-06-03T23:17:59.038Z,97766.95
2018-06-03T23:20:27.634Z,97762.41
2018-06-03T23:22:55.359Z,97757.88
2018-06-03T23:25:24.028Z,97759.81
2018-06-03T23:27:52.589Z,97747.89
2018-06-03T23:30:21.344Z,97748.09
2018-06-03T23:32:49.828Z,97748.55
2018-06-03T23:35:18.438Z,97746.52
2018-06-03T23:37:46.125Z,97746.05
2018-06-03T23:40:13.894Z,97746.16
2018-06-03T23:42:42.478Z,97743.56
2018-06-03T23:45:11.775Z,97741.96
2018-06-03T23:47:40.366Z,97732.63
2018-06-03T23:50:09.019Z,97728.66
2018-06-03T23:52:37.710Z,97730.09
2018-06-03T23:55:05.659Z,97731.22
2018-06-03T23:57:33.570Z,97723.14
